Time;durP1;ratioP1;P1;durP2;ratioP2;P2;SDS_P1;SDS_P2;PMS_P1;PMS_P2;Temp;Humidity;BMP_temperature;BMP_pressure;BME280_temperature;BME280_humidity;BME280_pressure;Samples;Min_cycle;Max_cycle;Signal;HPM_P1;HPM_P2
2022/05/26 00:01:09;;;;;;;48.85;12.73;;;16.50;99.90;;;16.33;90.99;101478.13;4845130;29;20416;-78
2022/05/26 00:03:46;;;;;;;56.78;12.65;;;16.50;99.90;;;16.74;91.04;101544.16;4845475;29;20128;-77
2022/05/26 00:06:17;;;;;;;50.20;11.48;;;16.50;99.90;;;16.76;91.43;101555.69;4844900;29;20076;-78
2022/05/26 00:08:46;;;;;;;47.05;11.65;;;16.50;99.90;;;16.77;91.73;101574.38;4844806;29;20062;-78
2022/05/26 00:11:18;;;;;;;54.97;12.38;;;16.40;99.90;;;16.89;91.29;101566.13;4843813;29;20130;-78
2022/05/26 00:13:46;;;;;;;48.08;11.80;;;16.50;99.90;;;16.87;91.25;101572.41;4844739;29;20057;-78
2022/05/26 00:16:18;;;;;;;52.30;12.73;;;16.50;99.90;;;16.86;91.43;101573.34;4844831;29;20053;-77
2022/05/26 00:18:47;;;;;;;52.08;11.32;;;16.50;99.90;;;16.92;91.45;101571.41;4844704;29;20385;-77
2022/05/26 00:21:17;;;;;;;53.20;12.32;;;16.50;99.90;;;16.66;91.58;101538.06;4844496;29;20046;-78
2022/05/26 00:23:45;;;;;;;53.15;12.15;;;16.50;99.90;;;16.95;91.35;101575.81;4843537;29;20111;-77
2022/05/26 00:26:14;;;;;;;60.25;12.85;;;16.50;99.90;;;16.92;91.26;101578.53;4844535;29;20050;-78
2022/05/26 00:28:42;;;;;;;56.08;12.50;;;16.50;99.90;;;16.99;91.17;101578.38;4844405;29;20081;-78
2022/05/26 00:31:10;;;;;;;58.17;11.90;;;16.60;99.90;;;16.95;91.17;101573.16;4844281;29;20124;-77
2022/05/26 00:33:40;;;;;;;57.65;12.23;;;16.60;99.90;;;16.87;91.34;101586.66;4843380;29;20085;-77
2022/05/26 00:36:12;;;;;;;49.60;12.82;;;16.50;99.90;;;16.86;91.53;101584.88;4844243;29;20129;-77
2022/05/26 00:38:41;;;;;;;48.58;12.50;;;16.50;99.90;;;16.88;91.41;101582.16;4844699;29;20074;-78
2022/05/26 00:41:12;;;;;;;53.03;13.15;;;16.50;99.90;;;16.69;91.61;101549.59;4844239;29;20074;-78
2022/05/26 00:43:44;;;;;;;48.22;11.57;;;16.50;99.90;;;16.75;91.87;101569.94;4844334;29;20102;-78
2022/05/26 00:46:21;;;;;;;52.25;12.43;;;16.50;99.90;;;16.82;91.84;101579.63;4844473;29;20106;-78
2022/05/26 00:48:56;;;;;;;52.38;11.90;;;16.50;99.90;;;16.81;91.78;101594.78;4844120;29;20050;-78
2022/05/26 00:51:29;;;;;;;50.35;11.18;;;16.50;99.90;;;16.84;92.11;101591.19;4844331;29;20058;-77
2022/05/26 00:54:04;;;;;;;43.22;12.57;;;16.40;99.90;;;16.91;91.84;101595.50;4844363;29;20065;-78
2022/05/26 00:56:40;;;;;;;47.83;11.20;;;16.50;99.90;;;16.87;91.40;101596.47;4844034;29;20060;-78
2022/05/26 00:59:17;;;;;;;45.83;11.40;;;16.50;99.90;;;16.82;90.62;101576.97;4843937;29;20071;-78
2022/05/26 01:01:46;;;;;;;41.97;10.30;;;16.60;99.90;;;16.95;90.21;101594.53;4843839;29;20046;-78
2022/05/26 01:04:21;;;;;;;43.92;10.85;;;16.60;99.90;;;16.93;89.71;101583.88;4844329;29;20106;-78
2022/05/26 01:06:56;;;;;;;44.55;11.23;;;16.60;99.90;;;16.88;89.78;101604.44;4843847;29;20125;-78
2022/05/26 01:09:25;;;;;;;42.13;10.07;;;16.50;99.90;;;16.94;89.50;101598.97;4843776;29;20073;-78
2022/05/26 01:11:53;;;;;;;43.78;10.20;;;16.60;99.90;;;16.96;89.02;101601.63;4843659;29;20069;-78
2022/05/26 01:14:26;;;;;;;40.58;9.57;;;16.60;99.90;;;17.01;88.51;101608.63;4843934;29;20093;-77
2022/05/26 01:17:09;;;;;;;38.25;10.10;;;16.60;99.90;;;17.02;88.20;101612.19;4843838;29;20053;-78
2022/05/26 01:20:25;;;;;;;39.70;10.02;;;16.60;99.90;;;17.14;87.78;101612.88;4842680;29;20102;-77
2022/05/26 01:23:32;;;;;;;40.83;9.75;;;16.70;99.90;;;17.13;87.16;101611.09;4843820;29;20073;-77
2022/05/26 01:26:45;;;;;;;37.78;9.80;;;16.70;99.90;;;17.20;86.66;101617.22;4842404;29;20492;-77
2022/05/26 01:30:12;;;;;;;33.10;8.90;;;16.80;99.90;;;17.27;85.72;101617.94;4843645;29;20046;-77
2022/05/26 01:33:35;;;;;;;27.80;7.97;;;16.90;99.90;;;17.24;84.46;101607.31;4843514;29;20575;-78
2022/05/26 01:36:18;;;;;;;32.35;8.20;;;16.90;99.90;;;17.30;83.42;101615.22;4829784;29;20152;-77
2022/05/26 01:39:07;;;;;;;26.67;7.80;;;17.00;99.90;;;17.40;83.13;101627.50;4843475;29;20478;-78
2022/05/26 01:41:56;;;;;;;30.20;7.95;;;17.00;99.90;;;17.42;82.12;101631.03;4843481;29;20080;-77
2022/05/26 01:44:36;;;;;;;20.58;6.45;;;17.00;99.90;;;17.38;81.45;101624.84;4843387;29;20050;-77
2022/05/26 01:47:19;;;;;;;24.90;7.53;;;17.10;99.90;;;17.38;81.11;101627.53;4843224;29;20463;-77
2022/05/26 01:49:55;;;;;;;23.30;7.07;;;17.10;99.90;;;17.46;80.79;101628.25;4843571;29;20064;-77
2022/05/26 01:52:32;;;;;;;23.25;7.18;;;17.10;99.90;;;17.48;80.71;101625.56;4842594;29;20445;-78
2022/05/26 01:55:07;;;;;;;19.58;6.38;;;17.10;99.90;;;17.54;80.21;101631.69;4843242;29;20472;-77
2022/05/26 01:57:44;;;;;;;19.70;7.80;;;17.20;99.90;;;17.56;79.55;101631.66;4842913;29;20585;-77
2022/05/26 02:00:16;;;;;;;22.50;7.05;;;17.20;99.90;;;17.49;79.53;101635.38;4842874;29;20060;-78
2022/05/26 02:02:52;;;;;;;20.77;7.13;;;17.20;99.90;;;17.52;79.10;101640.66;4843114;29;20099;-78
2022/05/26 02:05:26;;;;;;;18.17;6.50;;;17.20;99.90;;;17.38;79.17;101640.88;4842805;29;20171;-78
2022/05/26 02:08:00;;;;;;;19.45;6.28;;;17.00;99.90;;;17.43;78.79;101648.84;4842867;29;20042;-78
2022/05/26 02:10:37;;;;;;;19.77;6.30;;;17.10;99.90;;;17.36;78.82;101644.53;4841815;29;20061;-78
2022/05/26 02:13:10;;;;;;;18.92;6.20;;;17.00;99.90;;;17.46;78.82;101652.31;4842716;29;20470;-77
2022/05/26 02:15:43;;;;;;;15.02;5.22;;;17.10;99.90;;;17.43;78.09;101654.19;4841768;29;20122;-78
2022/05/26 02:18:17;;;;;;;16.05;5.78;;;17.10;99.90;;;17.48;77.97;101649.66;4842866;29;20125;-77
2022/05/26 02:20:51;;;;;;;20.10;6.05;;;17.10;99.90;;;17.42;78.11;101655.97;4842859;29;20046;-78
2022/05/26 02:23:26;;;;;;;19.85;6.25;;;17.10;99.90;;;17.44;77.94;101664.84;4842816;29;20053;-77
2022/05/26 02:25:55;;;;;;;19.73;6.50;;;17.10;99.90;;;17.40;78.19;101665.81;4842626;29;20561;-77
2022/05/26 02:28:24;;;;;;;13.38;5.80;;;17.00;99.90;;;17.40;78.07;101683.69;4842597;29;20048;-78
2022/05/26 02:30:53;;;;;;;15.50;5.75;;;17.10;99.90;;;17.23;78.13;101659.06;4842513;29;20468;-77
2022/05/26 02:33:21;;;;;;;19.55;6.57;;;17.10;99.90;;;17.16;78.41;101636.88;4842435;29;20042;-78
2022/05/26 02:35:53;;;;;;;14.38;6.20;;;16.90;99.90;;;17.26;78.13;101662.56;4841543;29;20093;-77
2022/05/26 02:38:26;;;;;;;17.35;6.32;;;16.90;99.90;;;17.34;78.10;101670.44;4842482;29;20053;-77
2022/05/26 02:40:54;;;;;;;22.40;6.38;;;17.10;99.90;;;17.32;78.25;101675.81;4842389;29;20050;-77
2022/05/26 02:43:27;;;;;;;20.08;7.30;;;17.00;99.90;;;17.32;78.54;101681.16;4826297;29;20469;-78
2022/05/26 02:46:06;;;;;;;16.77;6.60;;;17.10;99.90;;;17.32;78.54;101678.50;4842699;29;20207;-78
2022/05/26 02:49:14;;;;;;;21.58;7.28;;;17.00;99.90;;;17.35;78.22;101682.88;4842339;29;20120;-77
2022/05/26 02:51:53;;;;;;;18.65;6.53;;;17.10;99.90;;;17.22;78.71;101681.34;4842359;29;20133;-78
2022/05/26 02:54:32;;;;;;;20.48;6.40;;;16.90;99.90;;;17.09;79.08;101678.88;4842456;29;20054;-78
2022/05/26 02:57:13;;;;;;;18.55;6.38;;;16.90;99.90;;;17.22;79.37;101689.38;4842372;29;20102;-77
2022/05/26 02:59:58;;;;;;;18.00;6.60;;;16.90;99.90;;;17.21;79.52;101691.16;4841383;29;20508;-77
2022/05/26 03:02:36;;;;;;;12.63;5.65;;;16.90;99.90;;;17.13;79.32;101675.25;4842663;29;20094;-78
2022/05/26 03:05:09;;;;;;;19.85;6.68;;;16.80;99.90;;;17.24;79.43;101687.56;4846068;29;20095;-77
2022/05/26 03:07:44;;;;;;;16.08;6.43;;;16.90;99.90;;;17.21;79.45;101690.28;4846296;29;20091;-78
2022/05/26 03:10:15;;;;;;;21.52;6.80;;;16.90;99.90;;;17.17;79.79;101693.00;4846179;29;20050;-77
2022/05/26 03:12:44;;;;;;;20.85;6.70;;;16.90;99.90;;;17.19;79.63;101694.78;4845818;29;20057;-77
2022/05/26 03:15:16;;;;;;;18.42;6.43;;;16.80;99.90;;;17.14;80.02;101701.09;4846345;29;20077;-78
2022/05/26 03:17:44;;;;;;;18.13;6.90;;;16.80;99.90;;;17.14;79.63;101687.72;4845938;29;20061;-78
2022/05/26 03:20:13;;;;;;;17.95;6.18;;;16.90;99.90;;;17.26;79.38;101700.00;4845655;29;20049;-78
2022/05/26 03:22:43;;;;;;;22.38;6.43;;;16.90;99.90;;;17.17;79.76;101701.03;4845779;29;20050;-78
2022/05/26 03:25:12;;;;;;;20.73;6.97;;;16.90;99.90;;;17.21;79.51;101707.19;4845810;29;20110;-78
2022/05/26 03:27:40;;;;;;;16.75;6.00;;;16.90;99.90;;;17.13;79.98;101707.34;4845577;29;20303;-78
2022/05/26 03:30:10;;;;;;;20.52;6.93;;;16.80;99.90;;;17.04;79.76;101679.88;4845461;29;20121;-77
2022/05/26 03:32:38;;;;;;;23.13;6.72;;;16.80;99.90;;;17.21;79.80;101712.53;4845402;29;20050;-77
2022/05/26 03:40:47;;;;;;;18.17;5.78;;;16.90;99.90;;;17.28;79.42;101718.69;4845273;29;20042;-77
2022/05/26 03:43:16;;;;;;;18.20;7.10;;;16.90;99.90;;;17.27;79.38;101706.19;4845248;29;20074;-77
2022/05/26 03:45:45;;;;;;;14.25;6.53;;;16.90;99.90;;;16.93;79.08;101636.44;4844234;29;20140;-77
2022/05/26 03:48:13;;;;;;;20.48;7.50;;;17.00;99.90;;;17.21;79.41;101706.34;4829096;29;20420;-77
2022/05/26 03:50:41;;;;;;;18.77;6.45;;;16.90;99.90;;;17.21;79.30;101709.00;4845153;29;20462;-78
2022/05/26 03:53:11;;;;;;;18.08;5.85;;;16.80;99.90;;;17.30;79.03;101722.22;4843909;29;20165;-77
2022/05/26 03:55:40;;;;;;;20.07;6.60;;;16.90;99.90;;;17.09;79.23;101702.09;4845132;29;20133;-77
2022/05/26 03:58:08;;;;;;;15.25;5.57;;;16.90;99.90;;;17.20;78.65;101724.16;4828762;29;20074;-77
2022/05/26 04:00:37;;;;;;;17.70;6.05;;;16.90;99.90;;;17.23;78.26;101718.75;4844962;29;20106;-78
2022/05/26 04:03:06;;;;;;;13.10;6.00;;;16.90;99.90;;;17.30;77.74;101725.78;4844875;29;20560;-78
2022/05/26 04:05:34;;;;;;;12.95;5.40;;;16.90;99.90;;;17.23;77.81;101723.25;4828548;29;20093;-78
2022/05/26 04:08:02;;;;;;;19.73;6.57;;;16.90;99.90;;;17.26;77.43;101736.53;4845367;29;20050;-78
2022/05/26 04:10:32;;;;;;;15.80;6.07;;;16.90;99.90;;;17.22;77.81;101737.50;4844774;29;20509;-77
2022/05/26 04:13:01;;;;;;;14.02;6.00;;;16.90;99.90;;;17.08;78.28;101724.38;4845512;29;20548;-78
2022/05/26 04:15:29;;;;;;;18.73;6.60;;;16.80;99.90;;;17.14;78.14;101746.56;4844460;29;20465;-78
2022/05/26 04:17:57;;;;;;;18.60;6.00;;;16.80;99.90;;;17.08;78.75;101752.00;4844659;29;20126;-78
2022/05/26 04:20:26;;;;;;;18.77;6.35;;;16.70;99.90;;;16.95;79.01;101752.22;4843635;29;20054;-78
2022/05/26 04:22:54;;;;;;;19.40;6.75;;;16.70;99.90;;;16.93;79.45;101757.59;4844739;29;20120;-78
2022/05/26 04:25:25;;;;;;;16.52;6.25;;;16.70;99.90;;;16.78;79.65;101712.41;4828189;29;20482;-77
2022/05/26 04:27:55;;;;;;;;;;;16.70;99.90;;;17.12;79.49;101756.38;4844213;29;20561;-77
2022/05/26 04:30:24;;;;;;;16.88;6.28;;;16.80;99.90;;;17.10;79.40;101757.31;4828122;29;19924;-77
2022/05/26 04:32:53;;;;;;;19.50;7.38;;;16.80;99.90;;;17.14;79.52;101762.59;4844428;29;20465;-78
2022/05/26 04:35:21;;;;;;;23.77;6.10;;;16.80;99.90;;;17.23;79.44;101774.03;4844351;29;20078;-78
2022/05/26 04:37:49;;;;;;;19.10;6.47;;;16.90;99.90;;;17.17;79.46;101776.81;4843374;29;20054;-77
2022/05/26 04:40:18;;;;;;;15.00;5.70;;;16.80;99.90;;;17.10;79.45;101755.53;4844783;29;20082;-78
2022/05/26 04:42:47;;;;;;;13.73;5.90;;;16.90;99.90;;;17.23;79.49;101782.06;4844151;29;20053;-77
2022/05/26 04:45:17;;;;;;;20.65;6.18;;;16.90;99.90;;;17.29;79.08;101787.28;4844217;29;20129;-77
2022/05/26 04:47:45;;;;;;;21.77;6.20;;;16.90;99.90;;;17.31;79.12;101782.78;4844604;29;20085;-77
2022/05/26 04:50:14;;;;;;;15.55;5.90;;;17.00;99.90;;;17.37;78.93;101772.00;4844085;29;20050;-78
2022/05/26 04:52:43;;;;;;;19.63;6.57;;;17.10;99.90;;;17.46;78.66;101782.56;4843941;29;20042;-78
2022/05/26 04:55:12;;;;;;;22.35;6.50;;;17.10;99.90;;;17.29;78.52;101771.25;4827955;29;20057;-78
2022/05/26 04:57:40;;;;;;;18.65;6.13;;;17.10;99.90;;;17.50;78.44;101787.81;4844390;29;20129;-77
2022/05/26 05:00:14;;;;;;;19.50;6.80;;;17.20;99.90;;;17.58;78.44;101795.72;4844070;29;20128;-78
2022/05/26 05:02:44;;;;;;;20.52;6.72;;;17.20;99.90;;;17.53;78.56;101792.25;4843091;29;20073;-77
2022/05/26 05:05:13;;;;;;;27.00;7.38;;;17.20;99.90;;;17.63;78.37;101796.53;4844218;29;20102;-78
2022/05/26 05:07:42;;;;;;;21.63;7.38;;;17.30;99.90;;;17.67;78.23;101800.91;4844410;29;20057;-77
2022/05/26 05:10:10;;;;;;;24.30;6.60;;;17.30;99.90;;;17.63;78.32;101804.56;4844078;29;20084;-77
2022/05/26 05:12:40;;;;;;;21.25;6.97;;;17.30;99.90;;;17.66;78.34;101809.84;4842687;29;20058;-78
2022/05/26 05:15:17;;;;;;;17.67;6.53;;;17.30;99.90;;;17.62;77.98;101810.81;4843695;29;20049;-78
2022/05/26 05:17:47;;;;;;;20.65;6.85;;;17.30;99.90;;;17.52;78.16;101791.34;4843896;29;20408;-78
2022/05/26 05:20:15;;;;;;;18.77;6.30;;;17.30;99.90;;;17.74;77.93;101822.19;4844146;29;20049;-77
2022/05/26 05:22:49;;;;;;;20.25;6.25;;;17.40;99.90;;;17.66;77.64;101826.78;4843380;29;20629;-77
2022/05/26 05:25:23;;;;;;;21.63;6.50;;;17.30;99.90;;;17.74;78.05;101815.94;4843006;29;20505;-78
2022/05/26 05:27:56;;;;;;;20.77;6.22;;;17.30;99.90;;;17.80;78.09;101818.50;4843759;29;20549;-78
2022/05/26 05:30:29;;;;;;;16.42;5.93;;;17.50;99.90;;;17.95;77.62;101823.56;4843353;29;20500;-78
2022/05/26 05:33:06;;;;;;;16.65;5.65;;;17.60;99.90;;;17.88;76.90;101830.84;4843306;29;20564;-78
2022/05/26 05:35:42;;;;;;;20.67;6.30;;;17.60;99.90;;;17.91;77.12;101825.41;4843372;29;20132;-77
2022/05/26 05:38:10;;;;;;;18.00;6.82;;;17.60;99.90;;;18.06;76.59;101823.38;4842302;29;20050;-78
2022/05/26 05:40:39;;;;;;;18.17;6.05;;;17.70;99.90;;;18.12;76.07;101828.59;4843434;29;20050;-78
2022/05/26 05:43:07;;;;;;;21.58;5.70;;;17.80;99.90;;;17.85;75.90;101805.91;4842928;29;20050;-78
2022/05/26 05:45:37;;;;;;;16.92;5.78;;;17.70;99.90;;;18.07;76.10;101834.03;4826859;29;20061;-78
2022/05/26 05:48:09;;;;;;;20.70;5.63;;;17.80;99.90;;;18.11;75.89;101841.09;4842931;29;20052;-77
2022/05/26 05:50:37;;;;;;;19.52;6.38;;;17.80;99.90;;;18.19;75.74;101841.84;4826920;29;20050;-77
2022/05/26 05:53:06;;;;;;;18.77;5.75;;;17.80;99.90;;;18.16;74.88;101838.31;4842826;29;20531;-78
2022/05/26 05:55:35;;;;;;;17.90;6.10;;;17.90;99.90;;;18.12;75.37;101858.06;4842997;29;20560;-77
2022/05/26 05:58:07;;;;;;;20.50;6.28;;;17.90;99.90;;;18.28;75.29;101857.72;4826785;29;20416;-78
2022/05/26 06:00:36;;;;;;;15.65;5.53;;;17.90;99.90;;;18.46;75.27;101862.75;4842911;29;20461;-78
2022/05/26 06:03:05;;;;;;;16.42;5.53;;;18.10;99.90;;;18.60;74.50;101868.66;4842768;29;20042;-78
2022/05/26 06:05:35;;;;;;;16.50;5.85;;;18.30;99.90;;;18.53;74.45;101869.72;4842734;29;20038;-78
2022/05/26 06:08:05;;;;;;;16.98;6.55;;;18.30;99.90;;;18.51;73.75;101873.34;4842821;29;20132;-77
2022/05/26 06:10:34;;;;;;;14.63;5.75;;;18.20;99.90;;;18.65;73.04;101868.56;4842704;29;20061;-78
2022/05/26 06:13:02;;;;;;;16.98;5.68;;;18.30;99.90;;;18.64;72.59;101861.47;4842824;29;20081;-77
2022/05/26 06:15:32;;;;;;;14.15;6.05;;;18.30;99.90;;;18.69;72.21;101854.19;4842542;29;20060;-78
2022/05/26 06:18:01;;;;;;;16.13;5.32;;;18.40;99.90;;;18.90;71.90;101869.81;4841381;29;20050;-78
2022/05/26 06:20:29;;;;;;;16.38;6.28;;;18.50;99.90;;;18.97;71.88;101873.25;4826504;29;20052;-78
2022/05/26 06:22:59;;;;;;;16.35;5.70;;;18.60;99.90;;;18.98;71.16;101874.97;4826497;29;20049;-78
2022/05/26 06:25:27;;;;;;;15.43;5.47;;;18.70;99.90;;;18.97;70.67;101875.91;4842516;29;20073;-77
2022/05/26 06:30:42;;;;;;;15.27;5.05;;;18.70;99.90;;;19.11;70.49;101892.56;4843047;29;20065;-78
2022/05/26 06:38:46;;;;;;;17.50;5.28;;;19.00;99.90;;;19.14;69.44;101892.50;4842294;29;20457;-78
2022/05/26 06:44:11;;;;;;;13.18;5.18;;;18.90;99.90;;;19.22;69.51;101909.31;4841357;29;20106;-78
2022/05/26 06:46:40;;;;;;;14.10;5.50;;;18.90;99.90;;;19.27;69.25;101904.72;4842399;29;20053;-78
2022/05/26 06:49:08;;;;;;;13.68;5.53;;;18.90;99.90;;;19.28;68.69;101901.13;4842588;29;20072;-78
2022/05/26 06:51:39;;;;;;;11.65;5.38;;;19.00;99.90;;;19.34;68.75;101912.59;4842342;29;20133;-78
2022/05/26 06:54:09;;;;;;;13.23;5.25;;;19.00;99.90;;;19.42;68.15;101915.09;4842207;29;20064;-78
2022/05/26 06:56:38;;;;;;;15.23;5.38;;;19.20;99.90;;;19.52;68.32;101908.59;4842466;29;20113;-78
2022/05/26 06:59:06;;;;;;;11.30;5.22;;;19.20;99.90;;;19.47;68.45;101908.69;4842428;29;20050;-77
2022/05/26 07:01:35;;;;;;;15.00;5.53;;;19.20;99.90;;;19.07;68.20;101853.31;4842115;29;20099;-78
2022/05/26 07:04:03;;;;;;;11.80;5.43;;;19.10;99.90;;;19.40;68.26;101904.41;4841119;29;20054;-78
2022/05/26 07:06:32;;;;;;;12.02;5.20;;;19.10;99.90;;;19.21;68.25;101911.09;4842120;29;20050;-78
2022/05/26 07:09:00;;;;;;;14.45;5.22;;;19.00;99.90;;;19.35;68.97;101924.22;4842039;29;20065;-78
2022/05/26 07:11:32;;;;;;;14.77;5.70;;;19.00;99.90;;;19.40;69.04;101920.50;4841692;29;20077;-78
2022/05/26 07:14:00;;;;;;;14.57;5.68;;;19.10;99.90;;;19.37;68.82;101922.38;4840968;29;20066;-78
2022/05/26 07:16:28;;;;;;;16.45;5.60;;;19.10;99.90;;;19.28;68.09;101925.28;4842036;29;20128;-78
2022/05/26 07:18:57;;;;;;;16.38;5.45;;;19.00;99.90;;;19.48;68.21;101931.06;4842058;29;20050;-79
2022/05/26 07:21:25;;;;;;;16.80;5.63;;;19.10;99.90;;;19.59;67.70;101932.56;4825898;29;20054;-79
2022/05/26 07:23:54;;;;;;;16.20;5.93;;;19.30;99.90;;;19.68;68.04;101940.41;4841848;29;20382;-77
2022/05/26 07:26:24;;;;;;;17.75;6.10;;;19.30;99.90;;;19.56;68.24;101929.06;4842048;29;20034;-79
2022/05/26 07:28:53;;;;;;;17.65;5.97;;;19.30;99.90;;;19.51;68.03;101931.00;4841956;29;20050;-79
2022/05/26 07:31:22;;;;;;;16.48;6.03;;;19.20;99.90;;;19.39;67.92;101933.97;4842097;29;20046;-78
2022/05/26 07:33:50;;;;;;;15.18;5.78;;;19.10;99.90;;;19.27;68.25;101931.53;4842206;29;20053;-78
2022/05/26 07:41:57;;;;;;;18.15;5.57;;;18.90;99.90;;;19.25;68.72;101945.00;4840738;29;20053;-78
2022/05/26 07:44:29;;;;;;;16.40;5.53;;;19.00;99.90;;;19.23;69.12;101941.47;4842173;29;20057;-78
2022/05/26 07:46:58;;;;;;;19.23;6.38;;;19.00;99.90;;;19.19;68.69;101945.13;4842373;29;20141;-79
2022/05/26 07:49:26;;;;;;;17.48;5.72;;;19.00;99.90;;;19.31;68.69;101943.97;4842077;29;20496;-78
2022/05/26 07:51:57;;;;;;;18.42;6.20;;;19.10;99.90;;;19.48;68.89;101941.78;4845134;29;20073;-79
2022/05/26 07:54:27;;;;;;;17.70;6.25;;;19.20;99.90;;;19.54;69.54;101950.59;4845356;29;20130;-78
2022/05/26 07:56:56;;;;;;;14.55;6.18;;;19.30;99.90;;;19.41;68.37;101934.81;4845281;29;20465;-79
2022/05/26 07:59:26;;;;;;;16.30;6.00;;;19.30;99.90;;;19.62;67.84;101953.97;4845001;29;20094;-79
2022/05/26 08:01:55;;;;;;;18.77;6.60;;;19.30;99.90;;;19.66;66.60;101949.41;4844996;29;20057;-78
2022/05/26 08:04:23;;;;;;;14.50;5.75;;;19.30;99.90;;;19.69;66.63;101958.28;4844767;29;20045;-79
2022/05/26 08:06:52;;;;;;;16.85;5.75;;;19.40;99.90;;;19.60;66.27;101952.25;4844790;29;20159;-79
2022/05/26 08:09:22;;;;;;;13.68;5.85;;;19.30;99.90;;;19.62;66.68;101966.53;4844848;29;20042;-79
2022/05/26 08:11:51;;;;;;;;;;;19.30;99.90;;;19.54;67.06;101952.38;4845204;29;20102;-79
2022/05/26 08:14:19;;;;;;;13.40;5.75;;;19.30;99.90;;;19.51;66.93;101957.84;4844687;29;20413;-79
2022/05/26 08:16:49;;;;;;;15.98;5.75;;;19.20;99.90;;;19.46;67.34;101970.47;4845117;29;20083;-79
2022/05/26 08:19:19;;;;;;;15.77;5.75;;;19.10;99.90;;;19.48;67.60;101972.22;4844902;29;20077;-79
2022/05/26 08:21:47;;;;;;;21.00;6.05;;;19.20;99.90;;;19.57;67.38;101973.78;4844629;29;20045;-79
2022/05/26 08:24:17;;;;;;;16.38;6.05;;;19.30;99.90;;;19.70;68.16;101981.50;4844772;29;20069;-79
2022/05/26 08:26:45;;;;;;;17.25;6.85;;;19.30;99.90;;;19.71;68.69;101975.22;4827923;29;20081;-79
2022/05/26 08:29:14;;;;;;;16.45;6.43;;;19.40;99.90;;;19.57;68.12;101974.66;4844727;29;20079;-79
2022/05/26 08:31:42;;;;;;;13.05;5.32;;;19.30;99.90;;;19.67;68.26;101975.34;4844387;29;20050;-79
2022/05/26 08:34:12;;;;;;;16.67;6.30;;;19.30;99.90;;;19.51;67.82;101973.94;4844846;29;20057;-78
2022/05/26 08:36:41;;;;;;;19.77;6.25;;;19.20;99.90;;;19.61;66.89;101991.59;4844261;29;20099;-79
2022/05/26 08:39:10;;;;;;;16.02;5.32;;;19.30;99.90;;;19.59;67.15;101980.88;4844329;29;20060;-79
2022/05/26 08:41:42;;;;;;;18.52;6.07;;;19.30;99.90;;;19.57;67.37;101973.78;4844494;29;20066;-79
2022/05/26 08:44:20;;;;;;;19.05;5.75;;;19.30;99.90;;;19.68;66.16;101995.91;4844206;29;20046;-78
2022/05/26 08:46:54;;;;;;;15.07;5.72;;;19.30;99.90;;;19.72;66.56;102005.66;4844157;29;20074;-80
2022/05/26 08:49:27;;;;;;;15.18;6.13;;;19.40;99.90;;;19.94;67.61;102006.03;4844056;29;20481;-78
2022/05/26 08:52:02;;;;;;;15.73;5.47;;;19.50;99.90;;;19.74;66.52;101993.94;4844028;29;20065;-79
2022/05/26 08:54:38;;;;;;;15.38;5.55;;;19.50;99.90;;;19.91;66.33;102016.81;4844240;29;20070;-79
2022/05/26 08:57:12;;;;;;;13.85;6.10;;;19.50;99.90;;;20.05;65.98;102033.50;4844431;29;20042;-79
2022/05/26 08:59:45;;;;;;;18.13;6.53;;;19.70;99.90;;;19.99;65.76;102013.03;4843880;29;20133;-78
2022/05/26 09:02:26;;;;;;;18.80;5.95;;;19.70;99.90;;;20.11;64.41;102027.97;4844291;29;20100;-78
2022/05/26 09:04:58;;;;;;;17.38;5.25;;;19.80;99.90;;;19.97;64.03;102031.00;4827626;29;20149;-78
2022/05/26 09:13:13;;;;;;;12.93;5.50;;;19.60;99.90;;;19.96;63.47;102031.00;4843819;29;20038;-78
2022/05/26 09:15:42;;;;;;;16.30;4.95;;;19.60;99.90;;;19.77;64.29;102031.47;4844044;29;20046;-78
2022/05/26 09:18:13;;;;;;;13.30;5.45;;;19.50;99.90;;;19.80;63.55;102041.28;4844057;29;20046;-78
2022/05/26 09:20:45;;;;;;;14.68;5.00;;;19.40;99.90;;;20.00;64.16;102047.03;4843898;29;20058;-78
2022/05/26 09:23:22;;;;;;;16.67;5.85;;;19.50;99.90;;;20.15;63.06;102043.09;4843396;29;20120;-78
2022/05/26 09:25:55;;;;;;;13.23;5.60;;;19.80;99.90;;;19.98;63.71;102022.00;4843543;29;20557;-78
2022/05/26 09:28:30;;;;;;;16.45;5.30;;;19.70;99.90;;;20.14;62.88;102049.38;4843656;29;20087;-78
2022/05/26 09:31:19;;;;;;;12.55;4.95;;;19.80;99.90;;;20.17;63.14;102017.06;4843433;29;20078;-78
2022/05/26 09:34:02;;;;;;;11.90;5.18;;;19.90;99.90;;;19.66;62.00;101953.00;4843763;29;20456;-78
2022/05/26 09:36:36;;;;;;;12.48;5.15;;;19.90;99.90;;;20.35;62.56;102047.06;4843321;29;20072;-78
2022/05/26 09:39:05;;;;;;;15.30;5.85;;;19.90;99.90;;;20.35;63.05;102055.13;4843523;29;20053;-78
2022/05/26 09:41:41;;;;;;;19.00;5.32;;;20.00;99.90;;;20.43;62.76;102054.94;4828102;29;20515;-78
2022/05/26 09:44:29;;;;;;;15.02;5.30;;;20.00;99.90;;;20.26;62.81;102047.31;4844441;29;20061;-78
2022/05/26 09:47:02;;;;;;;20.50;6.72;;;20.00;99.90;;;20.20;63.85;102052.84;4844029;29;20042;-78
2022/05/26 09:49:38;;;;;;;14.77;5.57;;;19.90;99.90;;;20.15;63.92;102045.78;4844158;29;20042;-79
2022/05/26 09:52:25;;;;;;;14.88;5.90;;;19.80;99.90;;;20.19;64.91;102053.75;4843167;29;20489;-78
2022/05/26 09:55:10;;;;;;;15.65;6.53;;;19.80;99.90;;;20.49;65.97;102052.97;4843816;29;20132;-78
2022/05/26 09:57:39;;;;;;;17.17;5.88;;;20.10;99.90;;;20.64;64.33;102065.13;4843121;29;20106;-78
2022/05/26 10:00:20;;;;;;;17.77;5.72;;;20.30;99.90;;;20.65;63.39;102062.38;4842809;29;20046;-78
2022/05/26 10:02:51;;;;;;;16.88;6.22;;;20.30;99.90;;;20.85;64.09;102069.06;4843234;29;20061;-78
2022/05/26 10:05:29;;;;;;;18.20;5.78;;;20.50;99.90;;;20.85;62.88;102074.44;4843277;29;20057;-79
2022/05/26 10:08:12;;;;;;;13.30;5.50;;;20.60;99.90;;;20.33;63.11;101973.66;4842751;29;20148;-78
2022/05/26 10:10:45;;;;;;;14.25;5.70;;;20.60;99.90;;;20.82;62.75;102079.88;4842927;29;20046;-78
2022/05/26 10:13:28;;;;;;;18.73;6.35;;;20.60;99.90;;;20.96;62.54;102093.84;4842410;29;20054;-78
2022/05/26 10:16:09;;;;;;;16.83;5.20;;;20.60;99.90;;;20.93;61.78;102077.78;4826723;29;20096;-79
2022/05/26 10:18:52;;;;;;;;;;;20.60;99.90;;;20.84;61.55;102049.34;4843375;29;20456;-79
2022/05/26 10:21:41;;;;;;;16.52;5.82;;;20.70;99.90;;;20.71;60.80;102060.47;4842980;29;19973;-78
2022/05/26 10:24:52;;;;;;;13.55;4.72;;;20.50;99.90;;;20.72;61.57;102059.53;4826836;29;20540;-78
2022/05/26 10:27:39;;;;;;;16.90;5.25;;;20.40;99.90;;;20.63;61.37;102066.06;4812444;29;20085;-78
2022/05/26 10:30:30;;;;;;;15.73;5.57;;;20.30;99.90;;;20.71;61.70;102069.44;4842528;29;20053;-79
2022/05/26 10:33:11;;;;;;;;;;;20.30;99.90;;;20.74;61.88;102073.81;4843013;29;20476;-79
2022/05/26 10:35:55;;;;;;;18.35;6.22;;;20.40;99.90;;;20.47;62.01;102051.25;4842607;29;19932;-79
2022/05/26 10:39:11;;;;;;;12.70;6.03;;;20.30;99.90;;;20.61;61.91;102063.38;4842450;29;20124;-79
2022/05/26 10:41:45;;;;;;;15.02;5.28;;;20.30;99.90;;;20.02;62.38;101994.16;4832808;29;20480;-78
2022/05/26 10:44:23;;;;;;;16.20;5.50;;;20.20;99.90;;;20.43;63.14;102068.38;4842380;29;20106;-78
2022/05/26 10:47:00;;;;;;;18.38;5.90;;;20.10;99.90;;;20.33;63.59;102067.72;4842179;29;20500;-78
2022/05/26 10:49:41;;;;;;;16.33;5.93;;;20.00;99.90;;;20.44;64.02;102056.72;4842272;29;20053;-79
2022/05/26 10:52:14;;;;;;;13.38;5.40;;;20.00;99.90;;;20.42;63.47;102074.69;4842806;29;20046;-80
2022/05/26 10:54:50;;;;;;;15.93;5.28;;;20.10;99.90;;;20.31;63.51;102058.81;4842548;29;20090;-79
2022/05/26 10:57:27;;;;;;;16.48;5.25;;;20.00;99.90;;;20.41;63.19;102062.16;4826026;29;20106;-79
2022/05/26 11:00:05;;;;;;;13.27;5.30;;;20.10;99.90;;;20.48;62.23;102051.19;4841928;29;20054;-80